sensor_id;sensor_type;location;lat;lon;timestamp;temperature;humidity
1453;DHT22;720;47.738;7.998;2023-03-15T00:00:43;3.90;99.90
1453;DHT22;720;47.738;7.998;2023-03-15T00:03:09;3.90;99.90
1453;DHT22;720;47.738;7.998;2023-03-15T00:05:35;3.90;99.60
1453;DHT22;720;47.738;7.998;2023-03-15T00:08:01;3.90;99.60
1453;DHT22;720;47.738;7.998;2023-03-15T00:10:27;3.90;99.60
1453;DHT22;720;47.738;7.998;2023-03-15T00:12:53;3.90;99.20
1453;DHT22;720;47.738;7.998;2023-03-15T00:15:19;3.90;99.20
1453;DHT22;720;47.738;7.998;2023-03-15T00:17:44;3.90;99.20
1453;DHT22;720;47.738;7.998;2023-03-15T00:20:11;3.80;98.50
1453;DHT22;720;47.738;7.998;2023-03-15T00:22:40;3.70;98.70
1453;DHT22;720;47.738;7.998;2023-03-15T00:25:06;3.60;98.90
1453;DHT22;720;47.738;7.998;2023-03-15T00:27:32;3.50;98.40
1453;DHT22;720;47.738;7.998;2023-03-15T00:29:57;3.50;98.70
1453;DHT22;720;47.738;7.998;2023-03-15T00:32:23;3.50;98.60
1453;DHT22;720;47.738;7.998;2023-03-15T00:34:48;3.40;98.40
1453;DHT22;720;47.738;7.998;2023-03-15T00:37:17;3.30;98.30
1453;DHT22;720;47.738;7.998;2023-03-15T00:39:45;3.30;99.10
1453;DHT22;720;47.738;7.998;2023-03-15T00:42:12;3.30;99.20
1453;DHT22;720;47.738;7.998;2023-03-15T00:44:42;3.30;98.90
1453;DHT22;720;47.738;7.998;2023-03-15T00:47:09;3.10;97.00
1453;DHT22;720;47.738;7.998;2023-03-15T00:49:35;3.10;97.10
1453;DHT22;720;47.738;7.998;2023-03-15T00:52:00;3.00;97.10
1453;DHT22;720;47.738;7.998;2023-03-15T00:54:26;2.90;96.20
1453;DHT22;720;47.738;7.998;2023-03-15T00:56:51;2.80;96.50
1453;DHT22;720;47.738;7.998;2023-03-15T00:59:17;2.80;96.80
1453;DHT22;720;47.738;7.998;2023-03-15T01:01:43;2.70;96.60
1453;DHT22;720;47.738;7.998;2023-03-15T01:04:11;2.70;97.30
1453;DHT22;720;47.738;7.998;2023-03-15T01:06:37;2.60;97.70
1453;DHT22;720;47.738;7.998;2023-03-15T01:09:03;2.60;97.80
1453;DHT22;720;47.738;7.998;2023-03-15T01:11:29;2.70;97.80
1453;DHT22;720;47.738;7.998;2023-03-15T01:13:56;2.70;97.20
1453;DHT22;720;47.738;7.998;2023-03-15T01:16:22;2.70;97.40
1453;DHT22;720;47.738;7.998;2023-03-15T01:18:48;2.70;96.90
1453;DHT22;720;47.738;7.998;2023-03-15T01:21:16;2.60;97.60
1453;DHT22;720;47.738;7.998;2023-03-15T01:23:42;2.50;97.40
1453;DHT22;720;47.738;7.998;2023-03-15T01:26:12;2.40;97.10
1453;DHT22;720;47.738;7.998;2023-03-15T01:28:38;2.30;97.30
1453;DHT22;720;47.738;7.998;2023-03-15T01:31:03;2.20;97.60
1453;DHT22;720;47.738;7.998;2023-03-15T01:33:29;2.10;97.10
1453;DHT22;720;47.738;7.998;2023-03-15T01:36:13;2.10;96.90
1453;DHT22;720;47.738;7.998;2023-03-15T01:38:40;1.90;96.90
1453;DHT22;720;47.738;7.998;2023-03-15T01:41:05;1.90;97.30
1453;DHT22;720;47.738;7.998;2023-03-15T01:43:31;1.90;97.50
1453;DHT22;720;47.738;7.998;2023-03-15T01:48:54;1.70;97.20
1453;DHT22;720;47.738;7.998;2023-03-15T01:56:27;1.40;98.00
1453;DHT22;720;47.738;7.998;2023-03-15T01:58:54;1.50;98.00
1453;DHT22;720;47.738;7.998;2023-03-15T02:01:21;1.40;97.90
1453;DHT22;720;47.738;7.998;2023-03-15T02:03:50;1.40;98.00
1453;DHT22;720;47.738;7.998;2023-03-15T02:06:20;1.30;97.90
1453;DHT22;720;47.738;7.998;2023-03-15T02:08:53;1.30;98.10
1453;DHT22;720;47.738;7.998;2023-03-15T02:11:24;1.30;98.10
1453;DHT22;720;47.738;7.998;2023-03-15T02:13:50;1.20;98.10
1453;DHT22;720;47.738;7.998;2023-03-15T02:16:17;1.20;98.10
1453;DHT22;720;47.738;7.998;2023-03-15T02:18:43;1.10;98.40
1453;DHT22;720;47.738;7.998;2023-03-15T02:27:09;1.00;99.10
1453;DHT22;720;47.738;7.998;2023-03-15T02:29:35;1.00;98.50
1453;DHT22;720;47.738;7.998;2023-03-15T02:32:01;1.00;98.50
1453;DHT22;720;47.738;7.998;2023-03-15T02:34:30;0.90;98.60
1453;DHT22;720;47.738;7.998;2023-03-15T02:36:56;0.90;99.10
1453;DHT22;720;47.738;7.998;2023-03-15T02:39:22;0.90;99.40
1453;DHT22;720;47.738;7.998;2023-03-15T02:41:52;0.80;99.70
1453;DHT22;720;47.738;7.998;2023-03-15T02:44:31;0.80;99.90
1453;DHT22;720;47.738;7.998;2023-03-15T02:47:05;0.80;99.90
1453;DHT22;720;47.738;7.998;2023-03-15T02:49:36;1.00;99.80
1453;DHT22;720;47.738;7.998;2023-03-15T02:52:03;1.00;99.60
1453;DHT22;720;47.738;7.998;2023-03-15T02:54:29;1.00;99.70
1453;DHT22;720;47.738;7.998;2023-03-15T02:56:59;0.90;99.30
1453;DHT22;720;47.738;7.998;2023-03-15T02:59:24;0.90;99.30
1453;DHT22;720;47.738;7.998;2023-03-15T03:01:51;0.80;99.50
1453;DHT22;720;47.738;7.998;2023-03-15T03:04:17;0.80;99.80
1453;DHT22;720;47.738;7.998;2023-03-15T03:06:42;0.80;99.90
1453;DHT22;720;47.738;7.998;2023-03-15T03:09:09;0.90;99.90
1453;DHT22;720;47.738;7.998;2023-03-15T03:11:35;0.80;99.90
1453;DHT22;720;47.738;7.998;2023-03-15T03:14:01;0.90;99.90
1453;DHT22;720;47.738;7.998;2023-03-15T03:16:27;0.90;99.90
1453;DHT22;720;47.738;7.998;2023-03-15T03:18:53;0.80;99.90
1453;DHT22;720;47.738;7.998;2023-03-15T03:21:19;0.60;99.90
1453;DHT22;720;47.738;7.998;2023-03-15T03:23:44;0.50;99.90
1453;DHT22;720;47.738;7.998;2023-03-15T03:26:15;0.40;99.90
1453;DHT22;720;47.738;7.998;2023-03-15T03:28:43;0.40;99.90
1453;DHT22;720;47.738;7.998;2023-03-15T03:31:35;0.40;99.90
1453;DHT22;720;47.738;7.998;2023-03-15T03:34:01;0.40;99.90
1453;DHT22;720;47.738;7.998;2023-03-15T03:36:27;0.40;99.90
1453;DHT22;720;47.738;7.998;2023-03-15T03:38:52;0.50;99.90
1453;DHT22;720;47.738;7.998;2023-03-15T03:41:19;0.50;99.90
1453;DHT22;720;47.738;7.998;2023-03-15T03:43:45;0.50;99.90
1453;DHT22;720;47.738;7.998;2023-03-15T03:46:11;0.40;99.90
1453;DHT22;720;47.738;7.998;2023-03-15T03:48:37;0.50;99.90
1453;DHT22;720;47.738;7.998;2023-03-15T03:51:02;0.50;99.90
1453;DHT22;720;47.738;7.998;2023-03-15T03:53:28;0.40;99.90
1453;DHT22;720;47.738;7.998;2023-03-15T03:55:54;0.40;99.90
1453;DHT22;720;47.738;7.998;2023-03-15T03:58:20;0.30;99.90
1453;DHT22;720;47.738;7.998;2023-03-15T04:00:46;0.20;99.90
1453;DHT22;720;47.738;7.998;2023-03-15T04:03:12;0.20;99.90
1453;DHT22;720;47.738;7.998;2023-03-15T04:05:37;0.20;99.90
1453;DHT22;720;47.738;7.998;2023-03-15T04:08:03;0.20;99.90
1453;DHT22;720;47.738;7.998;2023-03-15T04:10:29;0.20;99.90
1453;DHT22;720;47.738;7.998;2023-03-15T04:12:59;0.40;99.90
1453;DHT22;720;47.738;7.998;2023-03-15T04:15:25;0.40;99.90
1453;DHT22;720;47.738;7.998;2023-03-15T04:17:51;0.40;99.90
1453;DHT22;720;47.738;7.998;2023-03-15T04:20:21;0.30;99.90
1453;DHT22;720;47.738;7.998;2023-03-15T04:22:47;0.30;99.90
1453;DHT22;720;47.738;7.998;2023-03-15T04:25:17;0.20;99.90
1453;DHT22;720;47.738;7.998;2023-03-15T04:27:43;0.20;99.90
1453;DHT22;720;47.738;7.998;2023-03-15T04:30:09;0.10;99.90
1453;DHT22;720;47.738;7.998;2023-03-15T04:32:35;0.10;99.90
1453;DHT22;720;47.738;7.998;2023-03-15T04:35:01;0.10;99.90
1453;DHT22;720;47.738;7.998;2023-03-15T04:37:27;0.10;99.90
1453;DHT22;720;47.738;7.998;2023-03-15T04:39:54;0.10;99.90
1453;DHT22;720;47.738;7.998;2023-03-15T04:42:20;0.10;99.90
1453;DHT22;720;47.738;7.998;2023-03-15T04:44:46;0.20;99.90
1453;DHT22;720;47.738;7.998;2023-03-15T04:47:11;0.20;99.90
1453;DHT22;720;47.738;7.998;2023-03-15T04:49:37;0.30;99.90
1453;DHT22;720;47.738;7.998;2023-03-15T04:52:03;0.30;99.90
1453;DHT22;720;47.738;7.998;2023-03-15T04:54:28;0.30;99.90
1453;DHT22;720;47.738;7.998;2023-03-15T04:56:54;0.30;99.90
1453;DHT22;720;47.738;7.998;2023-03-15T04:59:20;0.20;99.90
1453;DHT22;720;47.738;7.998;2023-03-15T05:01:46;0.20;99.90
1453;DHT22;720;47.738;7.998;2023-03-15T05:04:11;0.10;99.90
1453;DHT22;720;47.738;7.998;2023-03-15T05:06:37;0.10;99.90
1453;DHT22;720;47.738;7.998;2023-03-15T05:09:03;0.10;99.90
1453;DHT22;720;47.738;7.998;2023-03-15T05:11:29;0.20;99.90
1453;DHT22;720;47.738;7.998;2023-03-15T05:13:55;0.20;99.90
1453;DHT22;720;47.738;7.998;2023-03-15T05:16:21;0.20;99.90
1453;DHT22;720;47.738;7.998;2023-03-15T05:18:46;0.10;99.90
1453;DHT22;720;47.738;7.998;2023-03-15T05:21:12;0.10;99.90
1453;DHT22;720;47.738;7.998;2023-03-15T05:23:37;0.10;99.90
1453;DHT22;720;47.738;7.998;2023-03-15T05:26:03;0.20;99.90
1453;DHT22;720;47.738;7.998;2023-03-15T05:28:29;0.20;99.90
1453;DHT22;720;47.738;7.998;2023-03-15T05:30:56;0.30;99.90
1453;DHT22;720;47.738;7.998;2023-03-15T05:33:22;0.40;99.90
1453;DHT22;720;47.738;7.998;2023-03-15T05:35:49;0.40;99.90
1453;DHT22;720;47.738;7.998;2023-03-15T05:38:17;0.50;99.90
1453;DHT22;720;47.738;7.998;2023-03-15T05:40:44;0.60;99.90
1453;DHT22;720;47.738;7.998;2023-03-15T05:43:09;0.60;99.90
1453;DHT22;720;47.738;7.998;2023-03-15T05:45:36;0.70;99.90
1453;DHT22;720;47.738;7.998;2023-03-15T05:48:03;0.80;99.80
1453;DHT22;720;47.738;7.998;2023-03-15T05:50:29;0.90;99.70
1453;DHT22;720;47.738;7.998;2023-03-15T05:52:55;0.90;99.60
1453;DHT22;720;47.738;7.998;2023-03-15T05:55:21;0.90;99.40
1453;DHT22;720;47.738;7.998;2023-03-15T05:57:47;0.90;99.30
1453;DHT22;720;47.738;7.998;2023-03-15T06:00:13;0.90;99.50
1453;DHT22;720;47.738;7.998;2023-03-15T06:02:40;1.00;99.80
1453;DHT22;720;47.738;7.998;2023-03-15T06:05:06;1.30;99.90
1453;DHT22;720;47.738;7.998;2023-03-15T06:07:32;1.20;99.50
1453;DHT22;720;47.738;7.998;2023-03-15T06:09:57;1.20;99.50
1453;DHT22;720;47.738;7.998;2023-03-15T06:12:23;1.30;99.70
1453;DHT22;720;47.738;7.998;2023-03-15T06:14:49;1.30;99.60
1453;DHT22;720;47.738;7.998;2023-03-15T06:17:14;1.40;99.50
1453;DHT22;720;47.738;7.998;2023-03-15T06:19:40;1.40;99.20
1453;DHT22;720;47.738;7.998;2023-03-15T06:22:05;1.50;99.20
1453;DHT22;720;47.738;7.998;2023-03-15T06:24:31;1.70;98.80
1453;DHT22;720;47.738;7.998;2023-03-15T06:26:57;1.80;98.40
1453;DHT22;720;47.738;7.998;2023-03-15T06:29:23;1.90;98.30
1453;DHT22;720;47.738;7.998;2023-03-15T06:31:48;2.00;98.20
1453;DHT22;720;47.738;7.998;2023-03-15T06:34:15;2.10;98.20
1453;DHT22;720;47.738;7.998;2023-03-15T06:36:41;2.10;97.60
1453;DHT22;720;47.738;7.998;2023-03-15T06:39:07;2.10;97.40
1453;DHT22;720;47.738;7.998;2023-03-15T06:41:35;2.10;97.40
1453;DHT22;720;47.738;7.998;2023-03-15T06:44:01;1.90;97.20
1453;DHT22;720;47.738;7.998;2023-03-15T06:46:27;1.90;97.40
1453;DHT22;720;47.738;7.998;2023-03-15T06:48:52;2.00;97.60
1453;DHT22;720;47.738;7.998;2023-03-15T06:51:18;2.20;97.90
1453;DHT22;720;47.738;7.998;2023-03-15T06:53:44;2.40;97.70
1453;DHT22;720;47.738;7.998;2023-03-15T06:56:10;2.60;97.70
1453;DHT22;720;47.738;7.998;2023-03-15T06:58:35;2.80;97.30
1453;DHT22;720;47.738;7.998;2023-03-15T07:01:01;2.90;96.90
1453;DHT22;720;47.738;7.998;2023-03-15T07:03:27;3.20;97.00
1453;DHT22;720;47.738;7.998;2023-03-15T07:05:52;3.50;96.90
1453;DHT22;720;47.738;7.998;2023-03-15T07:08:22;3.80;96.80
1453;DHT22;720;47.738;7.998;2023-03-15T07:10:48;4.40;96.80
1453;DHT22;720;47.738;7.998;2023-03-15T07:13:15;4.70;95.20
1453;DHT22;720;47.738;7.998;2023-03-15T07:15:41;5.10;94.60
1453;DHT22;720;47.738;7.998;2023-03-15T07:18:07;6.10;94.30
1453;DHT22;720;47.738;7.998;2023-03-15T07:20:32;7.40;92.00
1453;DHT22;720;47.738;7.998;2023-03-15T07:22:58;7.70;89.20
1453;DHT22;720;47.738;7.998;2023-03-15T07:25:24;8.20;86.10
1453;DHT22;720;47.738;7.998;2023-03-15T07:27:50;9.10;83.10
1453;DHT22;720;47.738;7.998;2023-03-15T07:30:17;10.10;80.00
1453;DHT22;720;47.738;7.998;2023-03-15T07:32:43;11.60;74.00
1453;DHT22;720;47.738;7.998;2023-03-15T07:35:09;13.90;67.70
1453;DHT22;720;47.738;7.998;2023-03-15T07:37:34;15.00;58.00
1453;DHT22;720;47.738;7.998;2023-03-15T07:40:00;15.10;56.40
1453;DHT22;720;47.738;7.998;2023-03-15T07:42:34;15.50;55.80
1453;DHT22;720;47.738;7.998;2023-03-15T07:45:00;16.10;54.00
1453;DHT22;720;47.738;7.998;2023-03-15T07:47:25;15.80;51.20
1453;DHT22;720;47.738;7.998;2023-03-15T07:49:51;14.60;51.50
1453;DHT22;720;47.738;7.998;2023-03-15T07:52:16;13.60;53.20
1453;DHT22;720;47.738;7.998;2023-03-15T07:54:42;12.80;52.60
1453;DHT22;720;47.738;7.998;2023-03-15T07:57:08;11.60;53.70
1453;DHT22;720;47.738;7.998;2023-03-15T07:59:33;10.80;56.50
1453;DHT22;720;47.738;7.998;2023-03-15T08:01:59;10.30;57.80
1453;DHT22;720;47.738;7.998;2023-03-15T08:04:25;9.90;59.20
1453;DHT22;720;47.738;7.998;2023-03-15T08:06:50;9.40;59.20
1453;DHT22;720;47.738;7.998;2023-03-15T08:09:16;8.80;61.40
1453;DHT22;720;47.738;7.998;2023-03-15T08:11:41;8.40;62.30
1453;DHT22;720;47.738;7.998;2023-03-15T08:14:07;8.30;64.20
1453;DHT22;720;47.738;7.998;2023-03-15T08:16:33;8.00;64.60
1453;DHT22;720;47.738;7.998;2023-03-15T08:18:59;7.50;66.40
1453;DHT22;720;47.738;7.998;2023-03-15T08:21:25;7.50;66.80
1453;DHT22;720;47.738;7.998;2023-03-15T08:23:51;8.00;70.00
1453;DHT22;720;47.738;7.998;2023-03-15T08:26:16;9.50;69.20
1453;DHT22;720;47.738;7.998;2023-03-15T08:28:42;12.00;64.90
1453;DHT22;720;47.738;7.998;2023-03-15T08:31:08;14.90;55.90
1453;DHT22;720;47.738;7.998;2023-03-15T08:33:34;16.80;51.10
1453;DHT22;720;47.738;7.998;2023-03-15T08:36:00;18.20;46.10
1453;DHT22;720;47.738;7.998;2023-03-15T08:38:26;18.30;43.50
1453;DHT22;720;47.738;7.998;2023-03-15T08:40:57;19.00;42.70
1453;DHT22;720;47.738;7.998;2023-03-15T08:43:23;19.40;41.90
1453;DHT22;720;47.738;7.998;2023-03-15T08:45:50;20.30;41.50
1453;DHT22;720;47.738;7.998;2023-03-15T08:48:15;20.40;39.90
1453;DHT22;720;47.738;7.998;2023-03-15T08:50:41;20.90;40.50
1453;DHT22;720;47.738;7.998;2023-03-15T08:53:08;21.70;37.90
1453;DHT22;720;47.738;7.998;2023-03-15T08:55:33;22.30;38.50
1453;DHT22;720;47.738;7.998;2023-03-15T08:57:59;22.50;36.20
1453;DHT22;720;47.738;7.998;2023-03-15T09:00:27;22.70;35.60
1453;DHT22;720;47.738;7.998;2023-03-15T09:02:53;21.90;34.90
1453;DHT22;720;47.738;7.998;2023-03-15T09:05:21;21.80;36.80
1453;DHT22;720;47.738;7.998;2023-03-15T09:07:47;22.20;36.60
1453;DHT22;720;47.738;7.998;2023-03-15T09:10:15;22.20;36.80
1453;DHT22;720;47.738;7.998;2023-03-15T09:12:42;21.80;35.30
1453;DHT22;720;47.738;7.998;2023-03-15T09:15:08;21.90;36.60
1453;DHT22;720;47.738;7.998;2023-03-15T09:17:35;22.20;36.70
1453;DHT22;720;47.738;7.998;2023-03-15T09:20:02;22.60;35.40
1453;DHT22;720;47.738;7.998;2023-03-15T09:22:29;22.50;35.80
1453;DHT22;720;47.738;7.998;2023-03-15T09:24:55;22.60;35.00
1453;DHT22;720;47.738;7.998;2023-03-15T09:27:20;22.40;34.00
1453;DHT22;720;47.738;7.998;2023-03-15T09:29:46;22.30;34.60
1453;DHT22;720;47.738;7.998;2023-03-15T09:32:11;22.10;34.70
1453;DHT22;720;47.738;7.998;2023-03-15T09:34:37;20.60;35.60
1453;DHT22;720;47.738;7.998;2023-03-15T09:37:03;19.40;38.20
1453;DHT22;720;47.738;7.998;2023-03-15T09:39:29;19.50;38.10
1453;DHT22;720;47.738;7.998;2023-03-15T09:42:00;19.50;37.70
1453;DHT22;720;47.738;7.998;2023-03-15T09:45:03;19.20;38.20
1453;DHT22;720;47.738;7.998;2023-03-15T09:47:39;19.60;38.50
1453;DHT22;720;47.738;7.998;2023-03-15T09:51:03;19.80;36.70
1453;DHT22;720;47.738;7.998;2023-03-15T09:53:14;16.70;36.50
1453;DHT22;720;47.738;7.998;2023-03-15T09:55:44;14.70;40.30
1453;DHT22;720;47.738;7.998;2023-03-15T09:58:15;14.50;42.70
1453;DHT22;720;47.738;7.998;2023-03-15T10:00:51;14.40;43.50
1453;DHT22;720;47.738;7.998;2023-03-15T10:03:35;13.60;42.40
1453;DHT22;720;47.738;7.998;2023-03-15T10:08:38;12.40;47.30
1453;DHT22;720;47.738;7.998;2023-03-15T10:11:33;12.20;47.30
1453;DHT22;720;47.738;7.998;2023-03-15T10:14:17;12.50;48.50
1453;DHT22;720;47.738;7.998;2023-03-15T10:16:48;13.10;48.70
1453;DHT22;720;47.738;7.998;2023-03-15T10:22:25;13.20;47.10
1453;DHT22;720;47.738;7.998;2023-03-15T10:30:28;13.60;42.60
1453;DHT22;720;47.738;7.998;2023-03-15T10:35:25;14.80;43.20
1453;DHT22;720;47.738;7.998;2023-03-15T10:37:50;15.30;41.80
1453;DHT22;720;47.738;7.998;2023-03-15T10:40:37;15.70;42.50
1453;DHT22;720;47.738;7.998;2023-03-15T10:43:16;15.80;40.40
1453;DHT22;720;47.738;7.998;2023-03-15T10:45:42;15.60;40.70
1453;DHT22;720;47.738;7.998;2023-03-15T10:48:10;15.40;41.00
1453;DHT22;720;47.738;7.998;2023-03-15T10:50:37;15.20;41.30
1453;DHT22;720;47.738;7.998;2023-03-15T10:53:09;15.20;42.90
1453;DHT22;720;47.738;7.998;2023-03-15T10:55:43;15.30;42.10
1453;DHT22;720;47.738;7.998;2023-03-15T11:00:48;15.10;43.20
1453;DHT22;720;47.738;7.998;2023-03-15T11:03:20;14.20;40.80
1453;DHT22;720;47.738;7.998;2023-03-15T11:05:49;13.90;44.00
1453;DHT22;720;47.738;7.998;2023-03-15T11:08:18;12.70;42.70
1453;DHT22;720;47.738;7.998;2023-03-15T11:10:46;11.60;45.00
1453;DHT22;720;47.738;7.998;2023-03-15T11:13:29;11.20;50.00
1453;DHT22;720;47.738;7.998;2023-03-15T11:16:02;10.90;48.70
1453;DHT22;720;47.738;7.998;2023-03-15T11:18:42;10.60;48.50
1453;DHT22;720;47.738;7.998;2023-03-15T11:21:11;10.50;48.20
1453;DHT22;720;47.738;7.998;2023-03-15T11:23:42;9.90;48.20
1453;DHT22;720;47.738;7.998;2023-03-15T11:26:16;9.80;51.80
1453;DHT22;720;47.738;7.998;2023-03-15T11:28:46;9.80;52.50
1453;DHT22;720;47.738;7.998;2023-03-15T11:31:13;9.70;53.10
1453;DHT22;720;47.738;7.998;2023-03-15T11:34:12;9.30;52.70
1453;DHT22;720;47.738;7.998;2023-03-15T11:36:32;9.50;51.00
1453;DHT22;720;47.738;7.998;2023-03-15T11:39:01;9.50;55.40
1453;DHT22;720;47.738;7.998;2023-03-15T11:41:38;9.30;53.30
1453;DHT22;720;47.738;7.998;2023-03-15T11:47:02;9.20;53.60
1453;DHT22;720;47.738;7.998;2023-03-15T11:52:14;9.50;52.60
1453;DHT22;720;47.738;7.998;2023-03-15T11:54:40;9.60;52.40
1453;DHT22;720;47.738;7.998;2023-03-15T11:57:46;9.40;54.40
1453;DHT22;720;47.738;7.998;2023-03-15T12:00:19;9.00;54.50
1453;DHT22;720;47.738;7.998;2023-03-15T12:02:58;8.60;55.30
1453;DHT22;720;47.738;7.998;2023-03-15T12:08:43;8.70;55.20
1453;DHT22;720;47.738;7.998;2023-03-15T12:16:30;8.30;57.50
1453;DHT22;720;47.738;7.998;2023-03-15T12:19:01;8.60;56.00
1453;DHT22;720;47.738;7.998;2023-03-15T12:21:32;8.80;53.40
1453;DHT22;720;47.738;7.998;2023-03-15T12:24:04;8.90;52.60
1453;DHT22;720;47.738;7.998;2023-03-15T12:26:40;8.80;54.20
1453;DHT22;720;47.738;7.998;2023-03-15T12:29:27;8.50;54.80
1453;DHT22;720;47.738;7.998;2023-03-15T12:45:38;9.10;52.50
1453;DHT22;720;47.738;7.998;2023-03-15T12:55:56;8.10;57.50
1453;DHT22;720;47.738;7.998;2023-03-15T12:58:34;7.90;57.60
1453;DHT22;720;47.738;7.998;2023-03-15T13:01:03;7.70;62.40
1453;DHT22;720;47.738;7.998;2023-03-15T13:03:29;7.60;56.90
1453;DHT22;720;47.738;7.998;2023-03-15T13:06:30;7.60;56.90
1453;DHT22;720;47.738;7.998;2023-03-15T13:12:39;7.50;63.70
1453;DHT22;720;47.738;7.998;2023-03-15T13:15:08;7.50;58.60
1453;DHT22;720;47.738;7.998;2023-03-15T13:17:49;7.50;56.80
1453;DHT22;720;47.738;7.998;2023-03-15T13:23:16;7.70;58.20
1453;DHT22;720;47.738;7.998;2023-03-15T13:28:36;7.60;63.50
1453;DHT22;720;47.738;7.998;2023-03-15T13:31:23;7.70;72.40
1453;DHT22;720;47.738;7.998;2023-03-15T13:33:51;7.90;61.80
1453;DHT22;720;47.738;7.998;2023-03-15T13:36:44;7.90;57.20
1453;DHT22;720;47.738;7.998;2023-03-15T13:39:20;8.00;53.90
1453;DHT22;720;47.738;7.998;2023-03-15T13:41:48;8.10;56.80
1453;DHT22;720;47.738;7.998;2023-03-15T13:44:21;7.90;56.40
1453;DHT22;720;47.738;7.998;2023-03-15T13:46:50;7.80;56.70
1453;DHT22;720;47.738;7.998;2023-03-15T13:49:16;7.80;61.60
1453;DHT22;720;47.738;7.998;2023-03-15T13:51:43;7.50;63.60
1453;DHT22;720;47.738;7.998;2023-03-15T13:59:21;7.30;62.10
1453;DHT22;720;47.738;7.998;2023-03-15T14:01:49;7.50;70.60
1453;DHT22;720;47.738;7.998;2023-03-15T14:04:19;7.40;61.90
1453;DHT22;720;47.738;7.998;2023-03-15T14:06:45;7.40;64.50
1453;DHT22;720;47.738;7.998;2023-03-15T14:09:19;7.50;59.00
1453;DHT22;720;47.738;7.998;2023-03-15T14:12:20;7.40;61.80
1453;DHT22;720;47.738;7.998;2023-03-15T14:14:52;7.30;62.90
1453;DHT22;720;47.738;7.998;2023-03-15T14:17:29;7.00;58.70
1453;DHT22;720;47.738;7.998;2023-03-15T14:20:06;7.10;58.90
1453;DHT22;720;47.738;7.998;2023-03-15T14:22:34;7.40;57.50
1453;DHT22;720;47.738;7.998;2023-03-15T14:25:00;7.50;69.10
1453;DHT22;720;47.738;7.998;2023-03-15T14:27:28;7.60;60.70
1453;DHT22;720;47.738;7.998;2023-03-15T14:30:02;7.80;64.40
1453;DHT22;720;47.738;7.998;2023-03-15T14:32:33;8.00;73.70
1453;DHT22;720;47.738;7.998;2023-03-15T14:35:05;7.80;59.10
1453;DHT22;720;47.738;7.998;2023-03-15T14:37:37;7.80;56.80
1453;DHT22;720;47.738;7.998;2023-03-15T14:42:51;7.80;66.60
1453;DHT22;720;47.738;7.998;2023-03-15T14:45:17;7.70;77.00
1453;DHT22;720;47.738;7.998;2023-03-15T14:47:46;7.70;78.30
1453;DHT22;720;47.738;7.998;2023-03-15T14:50:14;7.70;80.70
1453;DHT22;720;47.738;7.998;2023-03-15T14:52:42;7.70;81.70
1453;DHT22;720;47.738;7.998;2023-03-15T14:55:12;7.80;78.00
1453;DHT22;720;47.738;7.998;2023-03-15T14:57:39;7.80;78.80
1453;DHT22;720;47.738;7.998;2023-03-15T15:00:05;7.70;67.70
1453;DHT22;720;47.738;7.998;2023-03-15T15:02:35;7.50;59.30
1453;DHT22;720;47.738;7.998;2023-03-15T15:05:22;7.40;70.80
1453;DHT22;720;47.738;7.998;2023-03-15T15:07:49;7.40;73.60
1453;DHT22;720;47.738;7.998;2023-03-15T15:10:20;7.30;69.70
1453;DHT22;720;47.738;7.998;2023-03-15T15:12:46;7.40;68.80
1453;DHT22;720;47.738;7.998;2023-03-15T15:15:17;7.50;74.80
1453;DHT22;720;47.738;7.998;2023-03-15T15:17:44;7.50;72.80
1453;DHT22;720;47.738;7.998;2023-03-15T15:20:10;7.60;81.40
1453;DHT22;720;47.738;7.998;2023-03-15T15:22:41;7.60;85.30
1453;DHT22;720;47.738;7.998;2023-03-15T15:25:18;7.60;86.50
1453;DHT22;720;47.738;7.998;2023-03-15T15:27:44;7.60;85.50
1453;DHT22;720;47.738;7.998;2023-03-15T15:30:19;7.60;88.30
1453;DHT22;720;47.738;7.998;2023-03-15T15:32:45;7.50;80.10
1453;DHT22;720;47.738;7.998;2023-03-15T15:35:12;7.50;78.40
1453;DHT22;720;47.738;7.998;2023-03-15T15:37:40;7.60;83.30
1453;DHT22;720;47.738;7.998;2023-03-15T15:40:15;7.60;86.20
1453;DHT22;720;47.738;7.998;2023-03-15T15:42:44;7.70;86.40
1453;DHT22;720;47.738;7.998;2023-03-15T15:45:12;7.60;86.60
1453;DHT22;720;47.738;7.998;2023-03-15T15:47:39;7.70;88.10
1453;DHT22;720;47.738;7.998;2023-03-15T15:50:05;7.70;83.90
1453;DHT22;720;47.738;7.998;2023-03-15T15:52:31;7.80;84.30
1453;DHT22;720;47.738;7.998;2023-03-15T15:54:56;7.80;85.50
1453;DHT22;720;47.738;7.998;2023-03-15T15:57:22;7.70;80.30
1453;DHT22;720;47.738;7.998;2023-03-15T15:59:51;7.60;81.90
1453;DHT22;720;47.738;7.998;2023-03-15T16:02:17;7.60;84.80
1453;DHT22;720;47.738;7.998;2023-03-15T16:04:47;7.60;86.20
1453;DHT22;720;47.738;7.998;2023-03-15T16:07:13;7.60;87.20
1453;DHT22;720;47.738;7.998;2023-03-15T16:09:41;7.60;86.60
1453;DHT22;720;47.738;7.998;2023-03-15T16:12:15;7.40;83.80
1453;DHT22;720;47.738;7.998;2023-03-15T16:14:42;7.50;85.60
1453;DHT22;720;47.738;7.998;2023-03-15T16:17:18;7.50;87.20
1453;DHT22;720;47.738;7.998;2023-03-15T16:19:45;7.30;87.00
1453;DHT22;720;47.738;7.998;2023-03-15T16:22:11;7.10;89.90
1453;DHT22;720;47.738;7.998;2023-03-15T16:24:38;6.90;90.50
1453;DHT22;720;47.738;7.998;2023-03-15T16:27:10;6.80;90.10
1453;DHT22;720;47.738;7.998;2023-03-15T16:29:38;6.70;90.80
1453;DHT22;720;47.738;7.998;2023-03-15T16:32:05;6.60;91.80
1453;DHT22;720;47.738;7.998;2023-03-15T16:34:31;6.60;92.10
1453;DHT22;720;47.738;7.998;2023-03-15T16:36:59;6.50;92.30
1453;DHT22;720;47.738;7.998;2023-03-15T16:39:26;6.50;92.50
1453;DHT22;720;47.738;7.998;2023-03-15T16:41:51;6.50;92.50
1453;DHT22;720;47.738;7.998;2023-03-15T16:44:19;6.40;92.50
1453;DHT22;720;47.738;7.998;2023-03-15T16:46:46;6.30;92.90
1453;DHT22;720;47.738;7.998;2023-03-15T16:49:12;6.40;93.20
1453;DHT22;720;47.738;7.998;2023-03-15T16:51:41;6.20;93.10
1453;DHT22;720;47.738;7.998;2023-03-15T16:54:08;6.10;93.40
1453;DHT22;720;47.738;7.998;2023-03-15T16:56:35;6.10;93.70
1453;DHT22;720;47.738;7.998;2023-03-15T16:59:01;6.00;93.80
1453;DHT22;720;47.738;7.998;2023-03-15T17:01:28;5.90;94.00
1453;DHT22;720;47.738;7.998;2023-03-15T17:03:54;5.90;94.40
1453;DHT22;720;47.738;7.998;2023-03-15T17:06:21;5.90;94.50
1453;DHT22;720;47.738;7.998;2023-03-15T17:08:57;5.90;94.70
1453;DHT22;720;47.738;7.998;2023-03-15T17:11:26;5.90;94.90
1453;DHT22;720;47.738;7.998;2023-03-15T17:13:52;5.90;95.20
1453;DHT22;720;47.738;7.998;2023-03-15T17:16:18;5.90;95.20
1453;DHT22;720;47.738;7.998;2023-03-15T17:18:44;5.90;95.20
1453;DHT22;720;47.738;7.998;2023-03-15T17:21:18;5.90;95.20
1453;DHT22;720;47.738;7.998;2023-03-15T17:23:45;5.90;95.40
1453;DHT22;720;47.738;7.998;2023-03-15T17:26:14;5.70;95.40
1453;DHT22;720;47.738;7.998;2023-03-15T17:28:39;5.60;95.20
1453;DHT22;720;47.738;7.998;2023-03-15T17:31:05;5.40;95.40
1453;DHT22;720;47.738;7.998;2023-03-15T17:33:31;5.30;95.50
1453;DHT22;720;47.738;7.998;2023-03-15T17:35:57;5.20;95.80
1453;DHT22;720;47.738;7.998;2023-03-15T17:38:27;5.00;95.60
1453;DHT22;720;47.738;7.998;2023-03-15T17:40:55;5.00;96.00
1453;DHT22;720;47.738;7.998;2023-03-15T17:43:21;4.80;96.10
1453;DHT22;720;47.738;7.998;2023-03-15T17:45:46;4.70;96.40
1453;DHT22;720;47.738;7.998;2023-03-15T17:48:12;4.70;96.20
1453;DHT22;720;47.738;7.998;2023-03-15T17:50:39;4.50;96.00
1453;DHT22;720;47.738;7.998;2023-03-15T17:53:19;4.40;96.30
1453;DHT22;720;47.738;7.998;2023-03-15T17:55:46;4.30;96.50
1453;DHT22;720;47.738;7.998;2023-03-15T17:58:20;4.20;96.90
1453;DHT22;720;47.738;7.998;2023-03-15T18:00:46;4.20;97.50
1453;DHT22;720;47.738;7.998;2023-03-15T18:03:13;4.10;98.00